Portada
METAR-TAF:

METAR-TAF

Aeroports :

General Santos, Filipines

latitud: 06-03-29N, longitud: 125-05-46E, altitud: 154 m

Observació

L'informe es va fer fa 8 hores i 23 minuts, a les 09:00 UTC
Vent 8 kt del Sud
Temperatura 28°C
Humitat 79%
Pressió 1012 hPa
Visibilitat 10 km o més
Escasses núvols a una alçada de 1800 ft
Cel ennuvolat a una alçada de 25000 ft

METAR: RPMR 210900Z 18008KT 9999 FEW018 BKN250 28/24 Q1012 NOSIG RMK A2988

Hora: 01:23 (17:23 UTC)

Pronòstic

L'informe es va fer fa 6 hores i 23 minuts, a les 11:00 UTC
Pronòstic vàlid del 21 a les 12 UTC al 22 a les 12 UTC
Vent 8 kt del Sud/Sud-Est
Visibilitat 10 km o més
Escasses núvols a una alçada de 1800 ft
Cel ennuvolat a una alçada de 25000 ft
Temporalment
l' 21 a les 12 UTC al 21 a les 18 UTC
Vent 4 kt del Sud
Escasses núvols a una alçada de 1700 ft, Cumulonimbus.
Núvols disperses a una alçada de 25000 ft

TAF: RPMR 211100Z 2112/2212 16008KT 9999 FEW018 BKN250 TEMPO 2112/2118 18004KT FEW017CB SCT250

Observacions i pronòstics meteorològics de més de 4000 aeroports (METAR i TAF).

Les estacions disponibles són els punts grocs i vermells al mapa.

Posi el ratolí al punt desitjat per veure el nom de l'estació.

Feu clic per veure les observacions i els pronòstics meteorològics.

Per canviar el mapa: feu clic els botons verds amb una creu de color negre per apropar; al botó verd amb un guió per allunyar la imatge; o en les fletxes verdes per a mapes adjacents.


METAR-TAF: